sensor_id;sensor_type;location;lat;lon;timestamp;pressure;altitude;pressure_sealevel;temperature;humidity
44839;BME280;30576;42.098;24.876;2022-09-14T00:00:28;99541.63;;;15.00;59.93
44839;BME280;30576;42.098;24.876;2022-09-14T00:02:53;99574.84;;;15.37;59.21
44839;BME280;30576;42.098;24.876;2022-09-14T00:05:19;99502.88;;;14.69;60.28
44839;BME280;30576;42.098;24.876;2022-09-14T00:07:45;99501.72;;;14.76;60.73
44839;BME280;30576;42.098;24.876;2022-09-14T00:10:10;99528.22;;;15.03;59.71
44839;BME280;30576;42.098;24.876;2022-09-14T00:12:36;99527.34;;;14.77;60.64
44839;BME280;30576;42.098;24.876;2022-09-14T00:15:03;99497.03;;;14.84;60.65
44839;BME280;30576;42.098;24.876;2022-09-14T00:17:32;99573.25;;;15.31;60.92
44839;BME280;30576;42.098;24.876;2022-09-14T00:19:57;99526.97;;;15.13;59.39
44839;BME280;30576;42.098;24.876;2022-09-14T00:22:23;99485.03;;;14.73;60.09
44839;BME280;30576;42.098;24.876;2022-09-14T00:24:48;99492.94;;;14.74;60.60
44839;BME280;30576;42.098;24.876;2022-09-14T00:27:15;99488.16;;;14.84;60.90
44839;BME280;30576;42.098;24.876;2022-09-14T00:29:40;99507.53;;;14.88;60.46
44839;BME280;30576;42.098;24.876;2022-09-14T00:32:06;99552.38;;;15.20;60.54
44839;BME280;30576;42.098;24.876;2022-09-14T00:34:31;99587.06;;;15.41;60.96
44839;BME280;30576;42.098;24.876;2022-09-14T00:36:58;99545.31;;;14.96;60.41
44839;BME280;30576;42.098;24.876;2022-09-14T00:39:24;99498.22;;;14.99;60.59
44839;BME280;30576;42.098;24.876;2022-09-14T00:41:50;99518.41;;;15.05;60.40
44839;BME280;30576;42.098;24.876;2022-09-14T00:46:44;99510.91;;;15.16;59.87
44839;BME280;30576;42.098;24.876;2022-09-14T00:54:15;99576.38;;;15.43;60.04
44839;BME280;30576;42.098;24.876;2022-09-14T00:56:41;99578.25;;;15.15;60.58
44839;BME280;30576;42.098;24.876;2022-09-14T00:59:17;99565.75;;;14.94;60.26
44839;BME280;30576;42.098;24.876;2022-09-14T01:01:44;99574.56;;;14.69;61.41
44839;BME280;30576;42.098;24.876;2022-09-14T01:04:10;99583.81;;;14.82;61.97
44839;BME280;30576;42.098;24.876;2022-09-14T01:06:38;99595.06;;;14.91;62.17
44839;BME280;30576;42.098;24.876;2022-09-14T01:14:32;99606.44;;;15.19;61.48
44839;BME280;30576;42.098;24.876;2022-09-14T01:17:10;99611.66;;;14.97;62.30
44839;BME280;30576;42.098;24.876;2022-09-14T01:20:01;99596.50;;;14.99;62.45
44839;BME280;30576;42.098;24.876;2022-09-14T01:22:46;99559.00;;;14.83;62.19
44839;BME280;30576;42.098;24.876;2022-09-14T01:25:27;99597.19;;;15.06;62.45
44839;BME280;30576;42.098;24.876;2022-09-14T01:28:00;99521.78;;;14.58;62.52
44839;BME280;30576;42.098;24.876;2022-09-14T01:30:28;99555.53;;;14.81;62.85
44839;BME280;30576;42.098;24.876;2022-09-14T01:33:14;99588.50;;;15.01;62.86
44839;BME280;30576;42.098;24.876;2022-09-14T01:35:53;99589.03;;;14.85;63.28
44839;BME280;30576;42.098;24.876;2022-09-14T01:38:29;99552.25;;;14.73;63.85
44839;BME280;30576;42.098;24.876;2022-09-14T01:40:58;99586.09;;;14.93;63.09
44839;BME280;30576;42.098;24.876;2022-09-14T01:43:36;99593.53;;;14.83;63.70
44839;BME280;30576;42.098;24.876;2022-09-14T01:46:17;99587.41;;;14.53;64.17
44839;BME280;30576;42.098;24.876;2022-09-14T01:51:17;99578.38;;;14.04;65.73
44839;BME280;30576;42.098;24.876;2022-09-14T01:53:51;99552.75;;;14.31;64.59
44839;BME280;30576;42.098;24.876;2022-09-14T01:56:24;99553.09;;;14.20;65.02
44839;BME280;30576;42.098;24.876;2022-09-14T02:01:43;99600.47;;;14.61;65.00
44839;BME280;30576;42.098;24.876;2022-09-14T02:04:12;99561.13;;;14.45;64.29
44839;BME280;30576;42.098;24.876;2022-09-14T02:06:43;99567.38;;;14.44;64.98
44839;BME280;30576;42.098;24.876;2022-09-14T02:09:11;99587.22;;;14.59;64.39
44839;BME280;30576;42.098;24.876;2022-09-14T02:11:38;99578.91;;;14.70;64.29
44839;BME280;30576;42.098;24.876;2022-09-14T02:14:04;99552.06;;;14.53;63.64
44839;BME280;30576;42.098;24.876;2022-09-14T02:16:30;99569.28;;;14.67;63.67
44839;BME280;30576;42.098;24.876;2022-09-14T02:18:56;99592.94;;;14.75;63.22
44839;BME280;30576;42.098;24.876;2022-09-14T02:21:29;99553.78;;;14.54;63.30
44839;BME280;30576;42.098;24.876;2022-09-14T02:23:56;99576.53;;;14.62;63.20
44839;BME280;30576;42.098;24.876;2022-09-14T02:26:23;99556.56;;;14.50;63.30
44839;BME280;30576;42.098;24.876;2022-09-14T02:28:49;99572.31;;;14.55;62.83
44839;BME280;30576;42.098;24.876;2022-09-14T02:47:21;99597.16;;;14.26;64.71
44839;BME280;30576;42.098;24.876;2022-09-14T02:50:05;99608.25;;;14.39;64.26
44839;BME280;30576;42.098;24.876;2022-09-14T02:55:37;99628.72;;;14.63;63.64
44839;BME280;30576;42.098;24.876;2022-09-14T02:58:13;99580.94;;;14.35;63.27
44839;BME280;30576;42.098;24.876;2022-09-14T03:00:44;99620.56;;;14.41;63.65
44839;BME280;30576;42.098;24.876;2022-09-14T03:03:12;99542.56;;;13.90;63.93
44839;BME280;30576;42.098;24.876;2022-09-14T03:05:38;99621.75;;;14.31;64.37
44839;BME280;30576;42.098;24.876;2022-09-14T03:08:04;99613.63;;;14.36;63.92
44839;BME280;30576;42.098;24.876;2022-09-14T03:10:32;99597.09;;;14.27;64.10
44839;BME280;30576;42.098;24.876;2022-09-14T03:12:59;99605.25;;;14.49;63.54
44839;BME280;30576;42.098;24.876;2022-09-14T03:15:25;99609.50;;;14.55;63.39
44839;BME280;30576;42.098;24.876;2022-09-14T03:17:51;99591.47;;;14.38;63.44
44839;BME280;30576;42.098;24.876;2022-09-14T03:20:20;99582.44;;;14.15;63.37
44839;BME280;30576;42.098;24.876;2022-09-14T03:22:46;99553.31;;;13.86;64.39
44839;BME280;30576;42.098;24.876;2022-09-14T03:25:13;99537.31;;;13.89;63.05
44839;BME280;30576;42.098;24.876;2022-09-14T03:27:39;99600.34;;;14.09;63.13
44839;BME280;30576;42.098;24.876;2022-09-14T03:30:05;99617.31;;;13.73;64.46
44839;BME280;30576;42.098;24.876;2022-09-14T03:32:31;99611.50;;;13.59;64.84
44839;BME280;30576;42.098;24.876;2022-09-14T03:34:56;99634.84;;;13.77;64.42
44839;BME280;30576;42.098;24.876;2022-09-14T03:37:23;99610.06;;;13.49;64.78
44839;BME280;30576;42.098;24.876;2022-09-14T03:39:49;99596.91;;;13.46;64.59
44839;BME280;30576;42.098;24.876;2022-09-14T03:42:14;99619.25;;;13.67;65.16
44839;BME280;30576;42.098;24.876;2022-09-14T03:44:41;99617.31;;;13.73;65.05
44839;BME280;30576;42.098;24.876;2022-09-14T03:47:06;99630.59;;;13.72;65.91
44839;BME280;30576;42.098;24.876;2022-09-14T03:49:33;99602.66;;;13.60;65.51
44839;BME280;30576;42.098;24.876;2022-09-14T03:51:58;99615.09;;;13.58;65.62
44839;BME280;30576;42.098;24.876;2022-09-14T03:54:23;99623.59;;;13.69;65.76
44839;BME280;30576;42.098;24.876;2022-09-14T03:56:50;99617.44;;;13.69;65.30
44839;BME280;30576;42.098;24.876;2022-09-14T03:59:16;99585.75;;;13.64;65.88
44839;BME280;30576;42.098;24.876;2022-09-14T04:01:41;99626.63;;;13.87;65.65
44839;BME280;30576;42.098;24.876;2022-09-14T04:04:06;99606.91;;;13.66;66.29
44839;BME280;30576;42.098;24.876;2022-09-14T04:06:32;99632.28;;;13.74;66.05
44839;BME280;30576;42.098;24.876;2022-09-14T04:08:57;99587.47;;;13.35;66.28
44839;BME280;30576;42.098;24.876;2022-09-14T04:11:24;99618.50;;;13.61;66.65
44839;BME280;30576;42.098;24.876;2022-09-14T04:13:51;99605.63;;;13.79;65.57
44839;BME280;30576;42.098;24.876;2022-09-14T04:16:18;99614.13;;;13.60;66.18
44839;BME280;30576;42.098;24.876;2022-09-14T04:18:47;99607.56;;;13.42;66.44
44839;BME280;30576;42.098;24.876;2022-09-14T04:21:14;99643.22;;;13.62;66.91
44839;BME280;30576;42.098;24.876;2022-09-14T04:23:41;99632.38;;;13.71;67.15
44839;BME280;30576;42.098;24.876;2022-09-14T04:26:11;99623.28;;;13.80;66.63
44839;BME280;30576;42.098;24.876;2022-09-14T04:28:37;99621.53;;;13.79;66.15
44839;BME280;30576;42.098;24.876;2022-09-14T04:31:02;99640.13;;;13.77;65.98
44839;BME280;30576;42.098;24.876;2022-09-14T04:33:33;99602.22;;;13.75;64.46
44839;BME280;30576;42.098;24.876;2022-09-14T04:36:01;99631.78;;;13.61;65.24
44839;BME280;30576;42.098;24.876;2022-09-14T04:38:29;99594.59;;;13.32;65.38
44839;BME280;30576;42.098;24.876;2022-09-14T04:40:55;99599.81;;;13.36;65.96
44839;BME280;30576;42.098;24.876;2022-09-14T04:43:20;99645.91;;;13.60;66.54
44839;BME280;30576;42.098;24.876;2022-09-14T04:45:46;99638.59;;;13.70;66.79
44839;BME280;30576;42.098;24.876;2022-09-14T04:48:13;99616.53;;;13.68;66.10
44839;BME280;30576;42.098;24.876;2022-09-14T04:50:38;99603.13;;;13.74;65.77
44839;BME280;30576;42.098;24.876;2022-09-14T04:53:04;99639.88;;;14.17;66.38
44839;BME280;30576;42.098;24.876;2022-09-14T04:55:29;99610.34;;;13.99;66.63
44839;BME280;30576;42.098;24.876;2022-09-14T04:57:54;99603.38;;;14.25;65.42
44839;BME280;30576;42.098;24.876;2022-09-14T05:00:20;99593.50;;;14.28;64.18
44839;BME280;30576;42.098;24.876;2022-09-14T05:02:45;99600.47;;;14.32;63.62
44839;BME280;30576;42.098;24.876;2022-09-14T05:05:11;99587.69;;;14.17;63.34
44839;BME280;30576;42.098;24.876;2022-09-14T05:07:36;99634.00;;;14.35;63.77
44839;BME280;30576;42.098;24.876;2022-09-14T05:10:02;99568.59;;;14.34;62.49
44839;BME280;30576;42.098;24.876;2022-09-14T05:12:28;99616.47;;;14.58;62.30
44839;BME280;30576;42.098;24.876;2022-09-14T05:14:54;99612.91;;;14.85;62.11
44839;BME280;30576;42.098;24.876;2022-09-14T05:17:20;99611.75;;;15.19;61.98
44839;BME280;30576;42.098;24.876;2022-09-14T05:19:45;99619.56;;;15.24;61.96
44839;BME280;30576;42.098;24.876;2022-09-14T05:22:11;99562.88;;;15.00;61.17
44839;BME280;30576;42.098;24.876;2022-09-14T05:24:36;99638.22;;;15.48;60.52
44839;BME280;30576;42.098;24.876;2022-09-14T05:27:02;99593.66;;;15.31;59.78
44839;BME280;30576;42.098;24.876;2022-09-14T05:29:27;99554.66;;;15.55;60.53
44839;BME280;30576;42.098;24.876;2022-09-14T05:31:54;99544.31;;;15.95;59.34
44839;BME280;30576;42.098;24.876;2022-09-14T05:34:19;99591.19;;;16.63;58.66
44839;BME280;30576;42.098;24.876;2022-09-14T05:36:44;99633.34;;;17.18;57.07
44839;BME280;30576;42.098;24.876;2022-09-14T05:39:10;99573.50;;;17.05;56.48
44839;BME280;30576;42.098;24.876;2022-09-14T05:41:36;99557.03;;;17.16;55.83
44839;BME280;30576;42.098;24.876;2022-09-14T05:44:01;99653.63;;;17.83;56.02
44839;BME280;30576;42.098;24.876;2022-09-14T05:46:27;99586.34;;;17.36;55.96
44839;BME280;30576;42.098;24.876;2022-09-14T05:48:52;99579.47;;;17.70;55.97
44839;BME280;30576;42.098;24.876;2022-09-14T05:51:21;99615.22;;;18.25;54.88
44839;BME280;30576;42.098;24.876;2022-09-14T05:53:50;99579.41;;;18.29;51.92
44839;BME280;30576;42.098;24.876;2022-09-14T05:56:17;99580.56;;;18.23;51.13
44839;BME280;30576;42.098;24.876;2022-09-14T05:58:43;99588.59;;;18.04;52.11
44839;BME280;30576;42.098;24.876;2022-09-14T06:01:11;99608.84;;;18.64;51.17
44839;BME280;30576;42.098;24.876;2022-09-14T06:03:37;99637.00;;;19.25;49.77
44839;BME280;30576;42.098;24.876;2022-09-14T06:06:04;99609.06;;;18.96;48.97
44839;BME280;30576;42.098;24.876;2022-09-14T06:08:29;99612.84;;;18.92;49.65
44839;BME280;30576;42.098;24.876;2022-09-14T06:10:55;99592.28;;;19.45;48.34
44839;BME280;30576;42.098;24.876;2022-09-14T06:13:20;99635.78;;;20.15;48.04
44839;BME280;30576;42.098;24.876;2022-09-14T06:15:48;99609.69;;;20.03;47.46
44839;BME280;30576;42.098;24.876;2022-09-14T06:18:13;99600.88;;;20.17;46.95
44839;BME280;30576;42.098;24.876;2022-09-14T06:20:39;99595.97;;;20.41;46.63
44839;BME280;30576;42.098;24.876;2022-09-14T06:23:04;99611.91;;;20.58;45.37
44839;BME280;30576;42.098;24.876;2022-09-14T06:25:30;99610.03;;;20.77;43.68
44839;BME280;30576;42.098;24.876;2022-09-14T06:27:55;99633.19;;;20.78;44.63
44839;BME280;30576;42.098;24.876;2022-09-14T06:30:21;99640.63;;;20.72;43.68
44839;BME280;30576;42.098;24.876;2022-09-14T06:32:47;99602.06;;;20.43;43.41
44839;BME280;30576;42.098;24.876;2022-09-14T06:35:12;99588.09;;;20.38;43.10
44839;BME280;30576;42.098;24.876;2022-09-14T06:37:38;99629.53;;;20.95;43.01
44839;BME280;30576;42.098;24.876;2022-09-14T06:40:04;99634.97;;;21.23;43.38
44839;BME280;30576;42.098;24.876;2022-09-14T06:42:29;99615.31;;;21.82;42.59
44839;BME280;30576;42.098;24.876;2022-09-14T06:44:55;99599.19;;;21.82;41.39
44839;BME280;30576;42.098;24.876;2022-09-14T06:47:21;99612.47;;;21.40;43.05
44839;BME280;30576;42.098;24.876;2022-09-14T06:49:48;99627.19;;;21.49;41.55
44839;BME280;30576;42.098;24.876;2022-09-14T06:52:14;99702.84;;;22.28;42.16
44839;BME280;30576;42.098;24.876;2022-09-14T06:54:40;99653.94;;;22.37;39.99
44839;BME280;30576;42.098;24.876;2022-09-14T06:57:05;99636.25;;;22.75;41.17
44839;BME280;30576;42.098;24.876;2022-09-14T06:59:31;99628.63;;;23.09;38.95
44839;BME280;30576;42.098;24.876;2022-09-14T07:01:56;99623.09;;;22.70;38.79
44839;BME280;30576;42.098;24.876;2022-09-14T07:04:22;99624.13;;;22.55;39.67
44839;BME280;30576;42.098;24.876;2022-09-14T07:06:49;99621.66;;;22.92;39.77
44839;BME280;30576;42.098;24.876;2022-09-14T07:09:16;99633.84;;;23.50;37.60
44839;BME280;30576;42.098;24.876;2022-09-14T07:11:42;99629.06;;;23.15;39.32
44839;BME280;30576;42.098;24.876;2022-09-14T07:14:08;99617.34;;;23.68;40.21
44839;BME280;30576;42.098;24.876;2022-09-14T07:16:35;99614.00;;;23.77;37.63
44839;BME280;30576;42.098;24.876;2022-09-14T07:19:04;99600.47;;;23.14;38.14
44839;BME280;30576;42.098;24.876;2022-09-14T07:21:31;99629.88;;;23.69;38.54
44839;BME280;30576;42.098;24.876;2022-09-14T07:23:57;99623.41;;;23.46;38.77
44839;BME280;30576;42.098;24.876;2022-09-14T07:26:24;99582.59;;;23.39;37.27
44839;BME280;30576;42.098;24.876;2022-09-14T07:29:01;99624.97;;;23.10;37.01
44839;BME280;30576;42.098;24.876;2022-09-14T07:31:34;99587.84;;;23.66;37.88
44839;BME280;30576;42.098;24.876;2022-09-14T07:34:01;99637.50;;;24.51;35.64
44839;BME280;30576;42.098;24.876;2022-09-14T07:36:29;99612.38;;;24.98;35.38
44839;BME280;30576;42.098;24.876;2022-09-14T07:38:55;99666.25;;;25.11;36.48
44839;BME280;30576;42.098;24.876;2022-09-14T07:41:23;99594.88;;;24.80;36.30
44839;BME280;30576;42.098;24.876;2022-09-14T07:43:56;99601.53;;;25.23;35.60
44839;BME280;30576;42.098;24.876;2022-09-14T07:46:25;99575.69;;;24.60;36.33
44839;BME280;30576;42.098;24.876;2022-09-14T07:49:01;99663.75;;;25.68;36.25
44839;BME280;30576;42.098;24.876;2022-09-14T09:47:25;99538.25;;;27.45;29.35
44839;BME280;30576;42.098;24.876;2022-09-14T09:49:58;99531.63;;;27.59;29.74
44839;BME280;30576;42.098;24.876;2022-09-14T09:52:24;99512.97;;;27.14;29.49
44839;BME280;30576;42.098;24.876;2022-09-14T09:54:52;99500.16;;;26.74;30.50
44839;BME280;30576;42.098;24.876;2022-09-14T09:57:35;99538.13;;;27.05;30.71
44839;BME280;30576;42.098;24.876;2022-09-14T10:00:17;99540.56;;;27.50;29.36
44839;BME280;30576;42.098;24.876;2022-09-14T10:02:43;99507.44;;;27.46;29.65
44839;BME280;30576;42.098;24.876;2022-09-14T10:13:01;99503.63;;;27.28;32.50
44839;BME280;30576;42.098;24.876;2022-09-14T10:15:34;99488.09;;;27.51;28.39
44839;BME280;30576;42.098;24.876;2022-09-14T10:18:07;99519.00;;;27.79;28.46
44839;BME280;30576;42.098;24.876;2022-09-14T10:20:41;99501.47;;;27.43;29.66
44839;BME280;30576;42.098;24.876;2022-09-14T10:25:43;99510.47;;;27.94;29.87
44839;BME280;30576;42.098;24.876;2022-09-14T10:28:29;99490.75;;;27.82;28.59
44839;BME280;30576;42.098;24.876;2022-09-14T10:33:40;99504.63;;;27.89;29.24
44839;BME280;30576;42.098;24.876;2022-09-14T10:36:11;99443.41;;;27.76;29.41
44839;BME280;30576;42.098;24.876;2022-09-14T10:38:48;99468.50;;;27.88;30.76
44839;BME280;30576;42.098;24.876;2022-09-14T10:46:28;99493.78;;;27.89;29.54
44839;BME280;30576;42.098;24.876;2022-09-14T10:52:19;99499.44;;;28.26;29.53
44839;BME280;30576;42.098;24.876;2022-09-14T10:57:47;99462.88;;;28.11;26.93
44839;BME280;30576;42.098;24.876;2022-09-14T11:00:20;99464.88;;;28.18;26.90
44839;BME280;30576;42.098;24.876;2022-09-14T11:05:46;99440.47;;;27.99;28.19
44839;BME280;30576;42.098;24.876;2022-09-14T11:08:32;99427.84;;;27.88;26.88
44839;BME280;30576;42.098;24.876;2022-09-14T11:14:23;99460.47;;;28.37;25.50
44839;BME280;30576;42.098;24.876;2022-09-14T11:17:08;99472.59;;;28.23;27.10
44839;BME280;30576;42.098;24.876;2022-09-14T11:27:33;99451.03;;;28.80;26.04
44839;BME280;30576;42.098;24.876;2022-09-14T11:30:17;99458.69;;;28.94;26.36
44839;BME280;30576;42.098;24.876;2022-09-14T11:32:52;99427.13;;;28.93;26.80
44839;BME280;30576;42.098;24.876;2022-09-14T11:35:41;99398.22;;;28.55;27.74
44839;BME280;30576;42.098;24.876;2022-09-14T11:38:28;99440.91;;;29.10;26.10
44839;BME280;30576;42.098;24.876;2022-09-14T11:43:46;99415.19;;;28.77;27.34
44839;BME280;30576;42.098;24.876;2022-09-14T11:46:21;99415.03;;;29.16;26.34
44839;BME280;30576;42.098;24.876;2022-09-14T11:48:51;99419.78;;;29.14;25.51
44839;BME280;30576;42.098;24.876;2022-09-14T11:51:36;99400.44;;;28.89;25.40
44839;BME280;30576;42.098;24.876;2022-09-14T11:54:18;99394.44;;;28.85;25.10
44839;BME280;30576;42.098;24.876;2022-09-14T11:56:51;99397.09;;;29.05;25.94
44839;BME280;30576;42.098;24.876;2022-09-14T12:17:49;99340.47;;;29.38;25.41
44839;BME280;30576;42.098;24.876;2022-09-14T12:26:01;99315.56;;;29.15;26.65
44839;BME280;30576;42.098;24.876;2022-09-14T12:36:07;99354.88;;;29.48;24.30
44839;BME280;30576;42.098;24.876;2022-09-14T12:41:56;99359.38;;;29.57;24.74
44839;BME280;30576;42.098;24.876;2022-09-14T12:44:47;99353.25;;;29.73;25.40
44839;BME280;30576;42.098;24.876;2022-09-14T12:49:52;99333.75;;;29.78;24.09
44839;BME280;30576;42.098;24.876;2022-09-14T12:55:34;99339.00;;;29.89;23.72
44839;BME280;30576;42.098;24.876;2022-09-14T13:00:43;99354.06;;;29.84;25.59
44839;BME280;30576;42.098;24.876;2022-09-14T13:03:41;99364.94;;;29.84;23.22
44839;BME280;30576;42.098;24.876;2022-09-14T13:06:12;99356.59;;;29.67;24.02
44839;BME280;30576;42.098;24.876;2022-09-14T13:08:44;99347.56;;;29.49;23.69
44839;BME280;30576;42.098;24.876;2022-09-14T13:11:18;99357.28;;;29.51;24.15
44839;BME280;30576;42.098;24.876;2022-09-14T13:13:46;99364.00;;;29.93;23.40
44839;BME280;30576;42.098;24.876;2022-09-14T13:16:18;99364.78;;;30.03;23.34
44839;BME280;30576;42.098;24.876;2022-09-14T13:18:47;99366.72;;;30.11;23.42
44839;BME280;30576;42.098;24.876;2022-09-14T13:21:22;99352.34;;;29.82;23.57
44839;BME280;30576;42.098;24.876;2022-09-14T13:23:49;99357.31;;;30.05;23.24
44839;BME280;30576;42.098;24.876;2022-09-14T13:26:29;99341.78;;;30.15;23.06
44839;BME280;30576;42.098;24.876;2022-09-14T13:28:58;99355.44;;;30.24;24.46
44839;BME280;30576;42.098;24.876;2022-09-14T13:31:30;99359.94;;;30.33;23.59
44839;BME280;30576;42.098;24.876;2022-09-14T13:33:56;99346.28;;;30.25;23.83
44839;BME280;30576;42.098;24.876;2022-09-14T13:36:26;99359.16;;;30.23;22.97
44839;BME280;30576;42.098;24.876;2022-09-14T13:38:53;99360.72;;;30.25;23.18
44839;BME280;30576;42.098;24.876;2022-09-14T13:41:21;99371.19;;;30.38;25.56
44839;BME280;30576;42.098;24.876;2022-09-14T13:43:49;99355.44;;;30.42;22.94
44839;BME280;30576;42.098;24.876;2022-09-14T13:46:16;99358.81;;;30.62;22.78
44839;BME280;30576;42.098;24.876;2022-09-14T13:48:42;99320.75;;;30.26;23.32
44839;BME280;30576;42.098;24.876;2022-09-14T13:51:09;99318.69;;;30.20;23.58
44839;BME280;30576;42.098;24.876;2022-09-14T14:01:37;99324.44;;;30.61;22.81
44839;BME280;30576;42.098;24.876;2022-09-14T14:04:03;99352.13;;;30.38;23.46
44839;BME280;30576;42.098;24.876;2022-09-14T14:06:31;99352.03;;;30.22;23.68
44839;BME280;30576;42.098;24.876;2022-09-14T14:09:09;99364.34;;;30.52;24.39
44839;BME280;30576;42.098;24.876;2022-09-14T14:19:50;99321.41;;;30.72;22.25
44839;BME280;30576;42.098;24.876;2022-09-14T14:22:23;99356.66;;;31.00;22.05
44839;BME280;30576;42.098;24.876;2022-09-14T14:24:50;99311.28;;;30.48;23.16
44839;BME280;30576;42.098;24.876;2022-09-14T14:27:34;99298.50;;;30.48;22.16
44839;BME280;30576;42.098;24.876;2022-09-14T14:30:11;99348.72;;;30.80;22.66
44839;BME280;30576;42.098;24.876;2022-09-14T14:32:37;99310.34;;;30.65;23.62
44839;BME280;30576;42.098;24.876;2022-09-14T14:35:06;99333.84;;;30.66;24.41
44839;BME280;30576;42.098;24.876;2022-09-14T14:37:38;99360.88;;;30.94;24.31
44839;BME280;30576;42.098;24.876;2022-09-14T14:40:04;99328.22;;;30.68;24.38
44839;BME280;30576;42.098;24.876;2022-09-14T14:42:30;99332.44;;;30.62;24.61
44839;BME280;30576;42.098;24.876;2022-09-14T14:44:55;99327.53;;;30.40;24.83
44839;BME280;30576;42.098;24.876;2022-09-14T14:47:21;99349.41;;;30.56;24.41
44839;BME280;30576;42.098;24.876;2022-09-14T14:49:48;99329.72;;;30.62;23.88
44839;BME280;30576;42.098;24.876;2022-09-14T14:52:13;99320.00;;;30.60;24.62
44839;BME280;30576;42.098;24.876;2022-09-14T14:54:39;99346.25;;;30.69;24.07
44839;BME280;30576;42.098;24.876;2022-09-14T14:57:07;99332.63;;;30.69;24.05
44839;BME280;30576;42.098;24.876;2022-09-14T14:59:34;99325.44;;;30.60;24.43
44839;BME280;30576;42.098;24.876;2022-09-14T15:01:59;99312.00;;;30.58;24.02
44839;BME280;30576;42.098;24.876;2022-09-14T15:04:25;99332.22;;;30.82;23.16
44839;BME280;30576;42.098;24.876;2022-09-14T15:06:52;99337.06;;;30.70;23.34
44839;BME280;30576;42.098;24.876;2022-09-14T15:09:21;99318.78;;;30.88;23.46
44839;BME280;30576;42.098;24.876;2022-09-14T15:11:47;99303.41;;;30.71;23.34
44839;BME280;30576;42.098;24.876;2022-09-14T15:14:14;99307.31;;;30.77;23.96
44839;BME280;30576;42.098;24.876;2022-09-14T15:16:40;99334.44;;;30.86;24.45
44839;BME280;30576;42.098;24.876;2022-09-14T15:19:06;99293.69;;;30.68;24.45
44839;BME280;30576;42.098;24.876;2022-09-14T15:21:32;99300.84;;;30.69;24.24
44839;BME280;30576;42.098;24.876;2022-09-14T15:23:58;99275.25;;;30.54;24.23
44839;BME280;30576;42.098;24.876;2022-09-14T15:26:27;99302.94;;;30.49;24.50
44839;BME280;30576;42.098;24.876;2022-09-14T15:28:52;99307.13;;;30.17;24.61
44839;BME280;30576;42.098;24.876;2022-09-14T15:31:18;99285.00;;;30.12;24.86
44839;BME280;30576;42.098;24.876;2022-09-14T15:33:44;99280.44;;;30.21;25.27
44839;BME280;30576;42.098;24.876;2022-09-14T15:36:09;99286.69;;;30.13;25.52
44839;BME280;30576;42.098;24.876;2022-09-14T15:38:35;99277.53;;;29.96;25.62
44839;BME280;30576;42.098;24.876;2022-09-14T15:41:00;99297.56;;;30.13;25.84
44839;BME280;30576;42.098;24.876;2022-09-14T15:43:26;99272.09;;;29.96;26.60
44839;BME280;30576;42.098;24.876;2022-09-14T15:45:52;99303.03;;;29.77;27.18
44839;BME280;30576;42.098;24.876;2022-09-14T15:48:18;99302.69;;;29.62;26.88
44839;BME280;30576;42.098;24.876;2022-09-14T15:50:45;99277.25;;;29.27;26.28
44839;BME280;30576;42.098;24.876;2022-09-14T15:53:13;99272.66;;;29.00;26.99
44839;BME280;30576;42.098;24.876;2022-09-14T15:55:39;99278.38;;;28.97;27.22
44839;BME280;30576;42.098;24.876;2022-09-14T15:58:06;99266.72;;;28.87;27.59
44839;BME280;30576;42.098;24.876;2022-09-14T16:00:32;99305.78;;;29.04;28.05
44839;BME280;30576;42.098;24.876;2022-09-14T16:02:57;99293.97;;;28.95;27.95
44839;BME280;30576;42.098;24.876;2022-09-14T16:05:23;99304.53;;;28.98;28.15
44839;BME280;30576;42.098;24.876;2022-09-14T16:07:52;99290.97;;;28.98;29.12
44839;BME280;30576;42.098;24.876;2022-09-14T16:10:18;99254.00;;;28.60;31.59
44839;BME280;30576;42.098;24.876;2022-09-14T16:12:43;99304.72;;;28.87;33.17
44839;BME280;30576;42.098;24.876;2022-09-14T16:15:09;99265.13;;;28.56;34.05
44839;BME280;30576;42.098;24.876;2022-09-14T16:17:34;99260.56;;;28.57;35.80
44839;BME280;30576;42.098;24.876;2022-09-14T16:20:01;99285.53;;;28.61;34.12
44839;BME280;30576;42.098;24.876;2022-09-14T16:22:27;99301.13;;;28.58;33.69
44839;BME280;30576;42.098;24.876;2022-09-14T16:24:52;99299.03;;;28.43;34.34
44839;BME280;30576;42.098;24.876;2022-09-14T16:27:18;99296.59;;;28.30;36.04
44839;BME280;30576;42.098;24.876;2022-09-14T16:29:43;99303.34;;;28.16;35.84
44839;BME280;30576;42.098;24.876;2022-09-14T16:32:08;99293.06;;;27.80;35.57
44839;BME280;30576;42.098;24.876;2022-09-14T16:34:35;99288.94;;;27.66;37.85
44839;BME280;30576;42.098;24.876;2022-09-14T16:37:00;99292.38;;;27.59;36.44
44839;BME280;30576;42.098;24.876;2022-09-14T16:39:27;99299.09;;;27.55;36.15
44839;BME280;30576;42.098;24.876;2022-09-14T16:41:54;99313.97;;;27.29;36.14
44839;BME280;30576;42.098;24.876;2022-09-14T16:44:24;99290.81;;;26.96;36.45
44839;BME280;30576;42.098;24.876;2022-09-14T16:46:51;99302.34;;;26.98;35.85
44839;BME280;30576;42.098;24.876;2022-09-14T16:49:17;99300.88;;;26.84;34.54
44839;BME280;30576;42.098;24.876;2022-09-14T16:51:43;99273.13;;;26.61;33.76
44839;BME280;30576;42.098;24.876;2022-09-14T16:54:13;99291.03;;;26.52;34.15
44839;BME280;30576;42.098;24.876;2022-09-14T16:56:39;99281.47;;;26.17;33.08
44839;BME280;30576;42.098;24.876;2022-09-14T16:59:05;99269.88;;;26.05;33.33
44839;BME280;30576;42.098;24.876;2022-09-14T17:01:36;99303.69;;;26.00;33.52
44839;BME280;30576;42.098;24.876;2022-09-14T17:04:06;99274.31;;;25.74;34.05
44839;BME280;30576;42.098;24.876;2022-09-14T17:06:33;99262.81;;;25.40;34.39
44839;BME280;30576;42.098;24.876;2022-09-14T17:09:10;99301.00;;;25.56;34.56
44839;BME280;30576;42.098;24.876;2022-09-14T17:11:38;99310.50;;;25.50;35.04